Heartwell, Nebraska
Current Conditions -  °F | °C
As of 11:15 PM on Sunday 19 Oct 2014 (Local Time) from KEAR Reporting Station
Clear Clear  
Wind Chill: 46°   Ceiling: Unl
Heat Index: 48°   Visibility: 10mi
Dew Point: 43°   Wind: 5mph
Humidity: 82%   Direction: 250°WSW
Pressure: 30.03"   Gusts: NA
Location:  40.57°N, 98.79°W
Report Text: KEAR 200415Z 25004KT 10SM CLR 09/06 A3003 RMK AO1
Loading
Personal Weather Stations






























Interactive Weather Map
Tropical Storm Tracking
New forecast layout! Learn more

10-Day Weather Forecast

Advertisements
Track Severe Weather on mobile